Time;durP1;ratioP1;P1;durP2;ratioP2;P2;SDS_P1;SDS_P2;PMS_P1;PMS_P2;Temp;Humidity;BMP_temperature;BMP_pressure;BME280_temperature;BME280_humidity;BME280_pressure;Samples;Min_cycle;Max_cycle;Signal;HPM_P1;HPM_P2
2022/03/16 00:01:07;;;;;;;41.33;22.27;;;5.30;99.90;;;;;;4856009;29;20415;-70
2022/03/16 00:03:32;;;;;;;41.05;20.80;;;5.70;99.90;;;;;;4841630;29;20410;-70
2022/03/16 00:05:58;;;;;;;36.13;20.33;;;5.20;99.90;;;;;;4837498;29;20101;-70
2022/03/16 00:08:27;;;;;;;42.05;21.67;;;5.20;99.90;;;;;;4845446;29;20053;-69
2022/03/16 00:10:53;;;;;;;36.30;20.08;;;5.20;99.90;;;;;;4859306;29;20062;-69
2022/03/16 00:13:19;;;;;;;36.15;20.15;;;5.10;99.90;;;;;;4845425;29;20054;-69
2022/03/16 00:15:44;;;;;;;38.15;20.35;;;5.10;99.90;;;;;;4845436;29;20057;-70
2022/03/16 00:18:12;;;;;;;37.90;20.13;;;5.10;99.90;;;;;;4845118;29;20060;-70
2022/03/16 00:20:37;;;;;;;36.38;19.00;;;5.00;99.90;;;;;;4845432;29;20534;-67
2022/03/16 00:23:04;;;;;;;43.38;20.85;;;5.00;99.90;;;;;;4828660;29;20183;-69
2022/03/16 00:25:30;;;;;;;36.17;19.70;;;4.90;99.90;;;;;;4844651;29;20141;-70
2022/03/16 00:27:55;;;;;;;38.90;21.30;;;4.80;99.90;;;;;;4828601;29;20121;-70
2022/03/16 00:30:21;;;;;;;37.55;20.35;;;4.80;99.90;;;;;;4845046;29;20050;-70
2022/03/16 00:32:46;;;;;;;35.70;19.77;;;4.80;99.90;;;;;;4845051;29;20128;-69
2022/03/16 00:35:12;;;;;;;37.60;20.25;;;4.70;99.90;;;;;;4845141;29;20042;-70
2022/03/16 00:37:38;;;;;;;36.60;19.13;;;4.70;99.90;;;;;;4845148;29;20514;-69
2022/03/16 00:40:04;;;;;;;39.63;20.88;;;4.70;99.90;;;;;;4844780;29;20042;-70
2022/03/16 00:42:30;;;;;;;39.30;19.92;;;4.70;99.90;;;;;;4844299;29;20582;-69
2022/03/16 00:44:56;;;;;;;42.63;21.48;;;4.70;99.90;;;;;;4844847;29;20086;-70
2022/03/16 00:47:22;;;;;;;41.85;22.50;;;4.60;99.90;;;;;;4828227;29;20410;-69
2022/03/16 00:49:47;;;;;;;39.65;20.48;;;4.60;99.90;;;;;;4844899;29;20046;-69
2022/03/16 00:52:13;;;;;;;35.97;20.33;;;4.60;99.90;;;;;;4844941;29;20411;-69
2022/03/16 00:54:39;;;;;;;41.45;21.88;;;4.70;99.90;;;;;;4844794;29;20046;-70
2022/03/16 00:57:04;;;;;;;39.83;21.55;;;4.60;99.90;;;;;;4827250;29;20138;-70
2022/03/16 00:59:30;;;;;;;39.63;21.58;;;4.70;99.90;;;;;;4844629;29;20073;-72
2022/03/16 01:01:57;;;;;;;43.25;22.73;;;4.70;99.90;;;;;;4844417;29;20045;-69
2022/03/16 01:04:23;;;;;;;41.47;22.08;;;4.70;99.90;;;;;;4827812;29;20057;-69
2022/03/16 01:06:49;;;;;;;44.08;22.08;;;4.70;99.90;;;;;;4844445;29;20054;-70
2022/03/16 01:09:15;;;;;;;40.80;21.85;;;4.60;99.90;;;;;;4844372;29;20537;-70
2022/03/16 01:11:41;;;;;;;38.58;22.17;;;4.70;99.90;;;;;;4827950;29;20085;-69
2022/03/16 01:14:06;;;;;;;35.85;20.95;;;4.60;99.90;;;;;;4844180;29;20054;-67
2022/03/16 01:16:35;;;;;;;37.88;21.35;;;4.60;99.90;;;;;;4844392;29;20432;-69
2022/03/16 01:19:03;;;;;;;39.60;21.33;;;4.60;99.90;;;;;;4827468;29;20062;-70
2022/03/16 01:21:29;;;;;;;40.53;20.95;;;4.60;99.90;;;;;;4844204;29;20128;-69
2022/03/16 01:23:55;;;;;;;35.58;19.90;;;4.60;99.90;;;;;;4844391;29;20053;-69
2022/03/16 01:26:20;;;;;;;40.58;21.83;;;4.60;99.90;;;;;;4827513;29;20045;-71
2022/03/16 01:28:46;;;;;;;39.25;20.50;;;4.60;99.90;;;;;;4843785;29;20046;-70
2022/03/16 01:31:11;;;;;;;42.08;20.92;;;4.50;99.90;;;;;;4827633;29;20050;-70
2022/03/16 01:33:37;;;;;;;40.88;21.48;;;4.50;99.90;;;;;;4827597;29;20427;-70
2022/03/16 01:36:03;;;;;;;38.15;20.63;;;4.50;99.90;;;;;;4843896;29;20548;-71
2022/03/16 01:38:29;;;;;;;42.15;22.02;;;4.50;99.90;;;;;;4843913;29;20081;-69
2022/03/16 01:40:54;;;;;;;40.42;20.30;;;4.50;99.90;;;;;;4858293;29;20487;-70
2022/03/16 01:43:20;;;;;;;35.63;20.13;;;4.50;99.90;;;;;;4827140;29;20057;-70
2022/03/16 01:45:50;;;;;;;41.25;21.27;;;4.40;99.90;;;;;;4826890;29;20054;-70
2022/03/16 01:54:32;;;;;;;42.35;20.90;;;4.30;99.90;;;;;;5012833;23;20534;-70
2022/03/16 01:56:58;;;;;;;41.60;20.98;;;4.30;99.90;;;;;;4806412;29;20079;-70
2022/03/16 01:59:24;;;;;;;39.42;20.23;;;4.30;99.90;;;;;;4806433;29;20058;-71
2022/03/16 02:01:50;;;;;;;38.15;20.50;;;4.40;99.90;;;;;;4790193;29;20054;-72
2022/03/16 02:04:16;;;;;;;37.13;18.52;;;4.20;99.90;;;;;;4790613;29;20055;-70
2022/03/16 02:06:41;;;;;;;37.55;20.38;;;4.20;99.90;;;;;;4789834;29;20066;-70
2022/03/16 02:09:07;;;;;;;36.42;19.77;;;4.20;99.90;;;;;;4790832;29;20103;-70
2022/03/16 02:11:33;;;;;;;40.20;19.98;;;4.20;99.90;;;;;;4807000;29;20057;-70
2022/03/16 02:13:58;;;;;;;33.67;19.25;;;4.10;99.90;;;;;;4806925;29;20061;-71
2022/03/16 02:16:24;;;;;;;36.70;19.17;;;4.10;99.90;;;;;;4789937;29;20119;-70
2022/03/16 02:18:50;;;;;;;33.38;18.60;;;4.10;99.90;;;;;;4806796;29;20046;-72
2022/03/16 02:21:16;;;;;;;33.13;17.67;;;4.00;99.90;;;;;;4806434;29;20466;-71
2022/03/16 02:23:42;;;;;;;35.10;18.40;;;4.00;99.90;;;;;;4806695;29;20507;-69
2022/03/16 02:26:12;;;;;;;33.78;19.48;;;3.90;99.90;;;;;;4806789;29;20043;-72
2022/03/16 02:28:38;;;;;;;33.80;17.83;;;3.90;99.90;;;;;;4806345;29;20054;-70
2022/03/16 02:31:05;;;;;;;36.22;18.70;;;3.80;99.90;;;;;;4805769;29;20053;-71
2022/03/16 02:33:30;;;;;;;31.20;16.33;;;3.80;99.90;;;;;;4806307;29;20059;-72
2022/03/16 02:35:56;;;;;;;25.73;15.35;;;3.60;99.90;;;;;;4806402;29;20541;-72
2022/03/16 02:38:22;;;;;;;28.30;16.67;;;3.50;99.90;;;;;;4806486;29;20053;-71
2022/03/16 02:40:48;;;;;;;30.10;15.73;;;3.40;99.90;;;;;;4790473;29;20047;-71
2022/03/16 02:43:14;;;;;;;29.45;16.45;;;3.40;99.90;;;;;;4790006;29;20054;-69
2022/03/16 02:45:40;;;;;;;28.85;17.33;;;3.30;99.90;;;;;;4806579;29;20057;-69
2022/03/16 02:48:05;;;;;;;34.55;17.10;;;3.20;99.90;;;;;;4789678;29;20059;-70
2022/03/16 02:50:32;;;;;;;33.35;18.65;;;3.20;99.90;;;;;;4806220;29;20142;-70
2022/03/16 02:52:57;;;;;;;37.30;18.60;;;3.20;99.90;;;;;;4789689;29;20059;-71
2022/03/16 02:55:23;;;;;;;36.38;18.75;;;3.20;99.90;;;;;;4790281;29;20067;-71
2022/03/16 02:57:49;;;;;;;35.85;18.67;;;3.20;99.90;;;;;;4806192;29;20491;-71
2022/03/16 03:00:15;;;;;;;34.80;18.75;;;3.10;99.90;;;;;;4806102;29;20410;-72
2022/03/16 03:02:41;;;;;;;33.55;17.60;;;3.10;99.90;;;;;;4789627;29;20522;-70
2022/03/16 03:05:08;;;;;;;35.42;18.08;;;3.10;99.90;;;;;;4805782;29;20059;-71
2022/03/16 03:07:34;;;;;;;31.20;17.27;;;3.10;99.90;;;;;;4805894;29;20066;-71
2022/03/16 03:09:59;;;;;;;35.05;16.73;;;3.10;99.90;;;;;;4806145;29;20051;-71
2022/03/16 03:12:25;;;;;;;30.67;16.92;;;3.10;99.90;;;;;;4804423;29;20424;-71
2022/03/16 03:14:51;;;;;;;34.25;18.25;;;3.00;99.90;;;;;;4806310;29;20047;-70
2022/03/16 03:17:16;;;;;;;35.65;17.30;;;3.00;99.90;;;;;;4789266;29;20134;-70
2022/03/16 03:19:43;;;;;;;35.83;17.48;;;3.00;99.90;;;;;;4805509;29;20115;-71
2022/03/16 03:22:09;;;;;;;32.80;18.40;;;3.00;99.90;;;;;;4789375;29;20503;-70
2022/03/16 03:24:35;;;;;;;34.50;17.63;;;3.00;99.90;;;;;;4805992;29;20050;-71
2022/03/16 03:27:01;;;;;;;33.20;18.05;;;3.00;99.90;;;;;;4806061;29;20448;-71
2022/03/16 03:29:27;;;;;;;34.20;17.52;;;3.60;99.90;;;;;;4805469;29;20139;-70
2022/03/16 03:31:53;;;;;;;32.13;18.33;;;3.00;99.90;;;;;;4805749;29;20086;-70
2022/03/16 03:34:18;;;;;;;31.40;17.05;;;3.00;99.90;;;;;;4789062;29;20131;-70
2022/03/16 03:36:44;;;;;;;33.15;18.10;;;3.00;99.90;;;;;;4805597;29;20104;-70
2022/03/16 03:39:10;;;;;;;33.33;18.25;;;3.00;99.90;;;;;;4805611;29;20051;-70
2022/03/16 03:41:36;;;;;;;36.15;19.08;;;3.00;99.90;;;;;;4805588;29;20488;-71
2022/03/16 03:44:01;;;;;;;33.92;18.38;;;3.00;99.90;;;;;;4805605;29;20047;-70
2022/03/16 03:46:27;;;;;;;35.33;17.75;;;3.00;99.90;;;;;;4805557;29;20542;-70
2022/03/16 03:48:53;;;;;;;34.40;17.77;;;3.00;99.90;;;;;;4805646;29;20047;-70
2022/03/16 03:51:19;;;;;;;33.35;17.80;;;2.90;99.90;;;;;;4805172;29;20411;-71
2022/03/16 03:53:44;;;;;;;28.10;16.20;;;2.90;99.90;;;;;;4805152;29;20063;-69
2022/03/16 03:56:10;;;;;;;31.52;15.35;;;3.30;99.90;;;;;;4789411;29;20050;-69
2022/03/16 03:58:37;;;;;;;32.03;16.83;;;2.80;99.90;;;;;;4805497;29;20046;-70
2022/03/16 04:01:03;;;;;;;30.73;16.30;;;2.70;99.90;;;;;;4789284;29;20140;-71
2022/03/16 04:03:29;;;;;;;31.60;16.13;;;2.70;99.90;;;;;;4788631;29;20591;-71
2022/03/16 04:05:55;;;;;;;25.85;15.20;;;2.60;99.90;;;;;;4805028;29;20138;-70
2022/03/16 04:08:20;;;;;;;28.63;15.82;;;2.70;99.90;;;;;;4797819;29;20050;-70
2022/03/16 04:10:46;;;;;;;26.48;14.40;;;2.70;99.90;;;;;;4789230;29;20491;-70
2022/03/16 04:13:12;;;;;;;35.08;18.27;;;2.70;99.90;;;;;;4805566;29;20051;-70
2022/03/16 04:15:38;;;;;;;27.38;15.05;;;2.70;99.90;;;;;;4805484;29;20053;-71
2022/03/16 04:18:03;;;;;;;28.13;16.30;;;2.70;99.90;;;;;;4805358;29;20519;-70
2022/03/16 04:20:29;;;;;;;29.52;15.50;;;2.70;99.90;;;;;;4789079;29;20115;-71
2022/03/16 04:22:55;;;;;;;33.47;17.70;;;2.60;99.90;;;;;;4804710;29;20046;-71
2022/03/16 04:25:20;;;;;;;30.75;17.50;;;2.60;99.90;;;;;;4788742;29;20172;-71
2022/03/16 04:27:46;;;;;;;34.28;18.58;;;2.60;99.90;;;;;;4805354;29;20047;-70
2022/03/16 04:30:12;;;;;;;33.97;18.08;;;2.70;99.90;;;;;;4805524;29;20042;-70
2022/03/16 04:32:38;;;;;;;35.72;19.35;;;2.60;99.90;;;;;;4789143;29;20070;-70
2022/03/16 04:35:03;;;;;;;36.13;18.50;;;2.60;99.90;;;;;;4788982;29;20055;-70
2022/03/16 04:37:29;;;;;;;36.17;18.95;;;2.60;99.90;;;;;;4804867;29;20129;-71
2022/03/16 04:39:55;;;;;;;35.60;18.83;;;2.60;99.90;;;;;;4804687;29;20039;-72
2022/03/16 04:42:20;;;;;;;38.72;18.73;;;2.50;99.90;;;;;;4805251;29;20074;-70
2022/03/16 04:44:46;;;;;;;36.03;18.85;;;2.40;99.90;;;;;;4805122;29;20049;-71
2022/03/16 04:47:11;;;;;;;36.78;19.65;;;2.40;99.90;;;;;;4805175;29;20461;-70
2022/03/16 04:49:37;;;;;;;39.33;19.63;;;2.30;99.90;;;;;;4789026;29;20103;-70
2022/03/16 04:52:03;;;;;;;38.67;21.55;;;2.30;99.90;;;;;;4788453;29;20063;-71
2022/03/16 04:54:29;;;;;;;40.00;20.83;;;2.30;99.90;;;;;;4807800;29;20094;-70
2022/03/16 04:56:56;;;;;;;42.55;21.77;;;2.40;99.90;;;;;;4808534;29;20054;-71
2022/03/16 04:59:21;;;;;;;49.83;23.58;;;2.40;99.90;;;;;;4808428;29;20051;-71
2022/03/16 05:01:47;;;;;;;46.10;24.40;;;2.40;99.90;;;;;;4808395;29;20046;-70
2022/03/16 05:04:14;;;;;;;53.40;26.20;;;2.50;99.90;;;;;;4791620;29;20149;-70
2022/03/16 05:06:39;;;;;;;53.95;26.92;;;2.70;99.90;;;;;;4808305;29;20058;-70
2022/03/16 05:09:05;;;;;;;45.08;19.90;;;2.80;99.90;;;;;;4807563;29;20047;-70
2022/03/16 05:11:30;;;;;;;50.42;23.13;;;3.00;99.90;;;;;;4807895;29;20095;-71
2022/03/16 05:13:57;;;;;;;47.97;21.33;;;2.90;99.90;;;;;;4808178;29;20119;-70
2022/03/16 05:16:22;;;;;;;46.83;21.95;;;3.00;99.90;;;;;;4808036;29;20126;-70
2022/03/16 05:18:48;;;;;;;51.55;23.52;;;3.00;99.90;;;;;;4808062;29;20134;-69
2022/03/16 05:21:14;;;;;;;51.92;21.23;;;3.00;99.90;;;;;;4793148;29;20054;-72
2022/03/16 05:23:40;;;;;;;48.70;21.83;;;3.10;99.90;;;;;;4807451;29;20409;-70
2022/03/16 05:26:07;;;;;;;49.78;22.80;;;3.20;99.90;;;;;;4776053;29;20130;-71
2022/03/16 05:28:33;;;;;;;45.88;21.00;;;3.20;99.90;;;;;;4791426;29;20055;-71
2022/03/16 05:30:58;;;;;;;41.97;18.15;;;3.10;99.90;;;;;;4807755;29;20120;-72
2022/03/16 05:33:24;;;;;;;45.70;20.80;;;3.20;99.90;;;;;;4791331;29;20047;-72
2022/03/16 05:35:51;;;;;;;45.15;20.33;;;3.20;99.90;;;;;;4791175;29;20403;-70
2022/03/16 05:38:17;;;;;;;41.83;19.27;;;3.20;99.90;;;;;;4807550;29;20058;-71
2022/03/16 05:40:43;;;;;;;39.45;19.10;;;3.20;99.90;;;;;;4807070;29;20047;-71
2022/03/16 05:43:10;;;;;;;38.90;18.15;;;3.20;99.90;;;;;;4807423;29;20055;-73
2022/03/16 05:45:37;;;;;;;28.63;10.70;;;3.10;99.90;;;;;;4807494;29;20043;-74
2022/03/16 05:48:03;;;;;;;31.88;11.48;;;3.10;99.90;;;;;;4807323;29;20055;-70
2022/03/16 05:50:29;;;;;;;28.40;12.05;;;3.10;99.90;;;;;;4807328;29;20086;-74
2022/03/16 05:52:59;;;;;;;27.95;11.40;;;3.10;99.90;;;;;;4805889;29;20090;-75
2022/03/16 05:55:25;;;;;;;29.10;12.15;;;3.20;99.90;;;;;;4790870;29;20058;-72
2022/03/16 05:57:50;;;;;;;30.70;11.35;;;3.20;99.90;;;;;;4807213;29;20510;-70
2022/03/16 06:00:18;;;;;;;36.05;12.52;;;3.20;99.90;;;;;;4790742;29;20134;-70
2022/03/16 06:02:44;;;;;;;32.58;13.40;;;3.30;99.90;;;;;;4807421;29;20051;-71
2022/03/16 06:05:10;;;;;;;30.67;11.88;;;3.30;99.90;;;;;;4806092;29;20137;-70
2022/03/16 06:07:37;;;;;;;30.98;12.75;;;3.30;99.90;;;;;;4806982;29;20129;-71
2022/03/16 06:10:05;;;;;;;26.63;12.00;;;3.30;99.90;;;;;;4790939;29;20067;-69
2022/03/16 06:12:30;;;;;;;29.55;10.90;;;3.30;99.90;;;;;;4806811;29;20053;-70
2022/03/16 06:14:56;;;;;;;25.15;10.68;;;3.40;99.90;;;;;;4807005;29;20488;-71
2022/03/16 06:17:23;;;;;;;29.13;12.95;;;3.40;99.90;;;;;;4806956;29;20066;-69
2022/03/16 06:19:48;;;;;;;31.55;12.38;;;3.40;99.90;;;;;;4806882;29;20047;-70
2022/03/16 06:22:14;;;;;;;29.15;11.27;;;3.40;99.90;;;;;;4806833;29;20389;-71
2022/03/16 06:24:40;;;;;;;29.10;11.40;;;3.40;99.90;;;;;;4806659;29;20043;-70
2022/03/16 06:27:05;;;;;;;27.30;11.63;;;3.40;99.90;;;;;;4789971;29;20066;-70
2022/03/16 06:29:31;;;;;;;29.10;12.35;;;3.40;99.90;;;;;;4790291;29;20108;-70
2022/03/16 06:31:57;;;;;;;26.67;11.05;;;3.40;99.90;;;;;;4790199;29;20078;-71
2022/03/16 06:34:23;;;;;;;28.20;12.10;;;3.50;99.90;;;;;;4790409;29;20086;-70
2022/03/16 06:36:48;;;;;;;27.05;10.35;;;3.50;99.90;;;;;;4806689;29;20043;-69
2022/03/16 06:39:14;;;;;;;31.35;11.30;;;3.50;99.90;;;;;;4790505;29;20389;-69
2022/03/16 06:41:40;;;;;;;26.00;11.57;;;3.60;99.90;;;;;;4806397;29;20047;-70
2022/03/16 06:44:05;;;;;;;28.65;11.32;;;3.60;99.90;;;;;;4789326;29;20059;-70
2022/03/16 06:46:31;;;;;;;29.55;11.63;;;3.70;99.90;;;;;;4806331;29;20054;-71
2022/03/16 06:48:57;;;;;;;26.15;11.50;;;3.70;99.90;;;;;;4806595;29;20062;-70
2022/03/16 06:51:22;;;;;;;25.25;10.75;;;3.70;99.90;;;;;;4806481;29;20435;-70
2022/03/16 06:53:48;;;;;;;28.60;10.93;;;3.70;99.90;;;;;;4806120;29;20066;-71
2022/03/16 06:56:14;;;;;;;27.58;11.13;;;3.80;99.90;;;;;;4806408;29;20447;-71
2022/03/16 06:58:39;;;;;;;24.65;11.23;;;3.80;99.90;;;;;;4789576;29;20476;-70
2022/03/16 07:01:05;;;;;;;31.13;12.10;;;3.80;99.90;;;;;;4789481;29;20439;-73
2022/03/16 07:03:31;;;;;;;29.02;11.10;;;4.10;99.90;;;;;;4789620;29;20050;-70
2022/03/16 07:05:56;;;;;;;29.98;11.57;;;3.80;99.90;;;;;;4789537;29;20431;-70
2022/03/16 07:08:22;;;;;;;27.95;11.05;;;3.80;99.90;;;;;;4806181;29;20468;-72
2022/03/16 07:10:48;;;;;;;31.02;11.43;;;3.80;99.90;;;;;;4806092;29;20108;-70
2022/03/16 07:13:14;;;;;;;29.52;12.10;;;3.90;99.90;;;;;;4805740;29;20450;-70
2022/03/16 07:15:41;;;;;;;30.77;10.93;;;3.90;99.90;;;;;;4805584;29;20047;-79
2022/03/16 07:18:07;;;;;;;27.67;11.73;;;4.00;99.90;;;;;;4806049;29;20039;-76
2022/03/16 07:20:33;;;;;;;30.33;12.48;;;4.00;99.90;;;;;;4789786;29;20185;-71
2022/03/16 07:23:09;;;;;;;26.02;9.50;;;4.10;99.90;;;;;;4805174;29;20074;-71
2022/03/16 07:25:36;;;;;;;22.85;10.05;;;4.20;99.90;;;;;;4805385;29;20127;-71
2022/03/16 07:28:02;;;;;;;24.13;10.77;;;4.20;99.90;;;;;;4790188;29;20382;-70
2022/03/16 07:30:27;;;;;;;23.50;9.75;;;4.30;99.90;;;;;;4787271;30;20130;-69
2022/03/16 07:32:53;;;;;;;28.73;10.23;;;4.70;99.90;;;;;;4787865;30;20130;-70
2022/03/16 07:35:24;;;;;;;27.55;10.00;;;4.40;99.90;;;;;;4787680;30;20049;-71
2022/03/16 07:37:50;;;;;;;27.13;10.40;;;4.50;99.90;;;;;;4792487;29;20062;-73
2022/03/16 07:40:15;;;;;;;22.10;8.77;;;4.50;99.90;;;;;;4811956;29;20050;-79
2022/03/16 07:42:47;;;;;;;21.02;9.10;;;4.60;99.90;;;;;;4819840;29;20081;-81
2022/03/16 07:45:15;;;;;;;18.77;8.32;;;4.60;99.90;;;;;;4822275;29;20050;-75
2022/03/16 07:47:42;;;;;;;18.70;8.13;;;4.70;99.90;;;;;;4822051;29;20058;-78
2022/03/16 07:50:09;;;;;;;17.05;8.15;;;4.70;99.90;;;;;;4822478;29;20102;-78
2022/03/16 07:52:35;;;;;;;25.55;9.90;;;4.80;99.90;;;;;;4822674;29;20054;-77
2022/03/16 07:55:01;;;;;;;31.75;10.13;;;4.80;99.90;;;;;;4821011;29;20123;-74
2022/03/16 07:57:27;;;;;;;25.23;9.73;;;4.90;99.90;;;;;;4804074;29;20094;-72
2022/03/16 07:59:54;;;;;;;24.63;9.77;;;4.90;99.90;;;;;;4804274;29;20074;-78
2022/03/16 08:02:20;;;;;;;28.38;11.30;;;5.10;99.90;;;;;;4800610;29;20058;-84
2022/03/16 08:04:46;;;;;;;25.05;11.98;;;5.20;99.90;;;;;;4806396;29;20133;-84
2022/03/16 08:07:11;;;;;;;26.20;11.48;;;5.30;99.90;;;;;;4806227;29;20062;-84
2022/03/16 08:09:37;;;;;;;25.55;10.82;;;5.40;99.90;;;;;;4822255;29;20046;-85
2022/03/16 08:12:04;;;;;;;28.10;11.95;;;5.60;99.90;;;;;;4806245;29;20396;-85
2022/03/16 08:14:29;;;;;;;23.08;10.63;;;5.70;99.90;;;;;;4822371;29;20081;-74
2022/03/16 08:16:55;;;;;;;28.63;10.38;;;5.80;99.90;;;;;;4806015;29;20085;-76
2022/03/16 08:19:21;;;;;;;18.75;9.73;;;5.90;99.90;;;;;;4814944;29;20575;-75
2022/03/16 08:21:47;;;;;;;34.30;15.88;;;6.00;99.90;;;;;;4822471;29;20464;-82
2022/03/16 08:24:14;;;;;;;37.03;15.95;;;6.10;99.90;;;;;;4822902;29;20054;-79
2022/03/16 08:26:40;;;;;;;36.50;15.10;;;6.20;99.90;;;;;;4821786;29;20058;-82
2022/03/16 08:29:06;;;;;;;31.20;15.43;;;7.10;99.90;;;;;;4803152;29;20051;-79
2022/03/16 08:31:32;;;;;;;29.65;12.13;;;6.50;99.90;;;;;;4806643;29;20439;-73
2022/03/16 08:33:57;;;;;;;28.85;11.85;;;6.80;99.90;;;;;;4807179;29;20065;-74
2022/03/16 08:36:23;;;;;;;27.40;12.63;;;6.80;99.90;;;;;;4821616;29;20056;-76
2022/03/16 08:38:49;;;;;;;27.40;10.57;;;6.80;99.90;;;;;;4819304;29;20125;-79
2022/03/16 08:41:14;;;;;;;28.05;13.05;;;6.90;99.90;;;;;;4808282;29;20062;-79
2022/03/16 08:43:40;;;;;;;29.67;11.85;;;6.90;99.90;;;;;;4821391;29;20085;-72
2022/03/16 08:46:05;;;;;;;33.42;13.20;;;7.00;99.90;;;;;;4806113;29;20485;-79
2022/03/16 08:48:31;;;;;;;38.70;12.25;;;7.10;99.90;;;;;;4803985;29;20122;-78
2022/03/16 08:50:57;;;;;;;30.92;13.10;;;7.20;99.90;;;;;;4812399;29;20051;-80
2022/03/16 08:53:25;;;;;;;39.25;14.05;;;7.30;99.90;;;;;;4809745;29;20050;-80
2022/03/16 08:55:50;;;;;;;31.73;12.15;;;7.40;99.90;;;;;;4790601;29;20137;-74
2022/03/16 08:58:16;;;;;;;28.20;12.13;;;7.50;99.90;;;;;;4796069;29;20412;-77
2022/03/16 09:00:42;;;;;;;29.30;12.85;;;7.50;99.90;;;;;;4795162;29;20740;-80
2022/03/16 09:03:11;;;;;;;31.98;13.90;;;8.00;99.90;;;;;;4793716;29;20484;-70
2022/03/16 09:05:37;;;;;;;33.70;14.18;;;7.90;99.90;;;;;;4810426;29;20059;-73
2022/03/16 09:08:03;;;;;;;32.35;13.68;;;7.70;99.90;;;;;;4820361;29;20099;-70
2022/03/16 09:10:29;;;;;;;35.22;12.75;;;7.80;99.90;;;;;;4804950;29;20147;-75
2022/03/16 09:12:55;;;;;;;29.73;12.98;;;7.90;99.90;;;;;;4833038;29;20147;-68
2022/03/16 09:15:21;;;;;;;34.70;14.32;;;8.10;99.90;;;;;;4813654;29;20051;-74
2022/03/16 09:17:47;;;;;;;33.55;13.13;;;8.20;99.90;;;;;;4822437;29;20065;-70
2022/03/16 09:20:12;;;;;;;31.02;13.80;;;8.30;99.90;;;;;;4821135;29;20058;-68
2022/03/16 09:22:38;;;;;;;33.00;13.35;;;8.40;99.90;;;;;;4805528;29;20554;-71
2022/03/16 09:25:06;;;;;;;28.40;11.75;;;8.50;99.90;;;;;;4801363;29;20054;-68
2022/03/16 09:27:33;;;;;;;33.17;13.00;;;8.70;99.90;;;;;;4816344;29;20054;-74
2022/03/16 09:30:00;;;;;;;28.52;12.93;;;8.90;99.90;;;;;;4836095;29;20505;-69
2022/03/16 09:32:27;;;;;;;29.48;11.93;;;9.00;99.90;;;;;;4822673;29;20498;-71
2022/03/16 09:34:53;;;;;;;40.75;16.08;;;9.10;99.90;;;;;;4819507;29;20061;-68
2022/03/16 09:37:19;;;;;;;38.90;19.70;;;9.40;99.90;;;;;;4818235;29;20046;-74
2022/03/16 09:39:45;;;;;;;34.15;19.85;;;9.40;99.90;;;;;;4823062;29;20042;-69
2022/03/16 09:42:11;;;;;;;34.72;18.23;;;9.50;99.90;;;;;;4821840;29;20053;-69
2022/03/16 09:44:38;;;;;;;34.70;18.58;;;9.60;99.90;;;;;;4800245;29;20130;-69
2022/03/16 09:47:08;;;;;;;30.35;17.67;;;9.80;99.90;;;;;;4820681;29;20080;-68
2022/03/16 09:49:36;;;;;;;32.47;17.13;;;9.90;99.90;;;;;;4821944;29;20525;-75
2022/03/16 09:52:03;;;;;;;32.47;17.70;;;10.00;99.90;;;;;;4806169;29;20411;-68
2022/03/16 09:54:29;;;;;;;31.08;17.23;;;10.00;99.90;;;;;;4818698;29;20098;-72
2022/03/16 09:56:55;;;;;;;29.45;16.25;;;10.20;99.90;;;;;;4804010;29;20142;-72
2022/03/16 09:59:21;;;;;;;27.73;15.18;;;10.30;99.90;;;;;;4821652;29;20103;-74
2022/03/16 10:01:46;;;;;;;26.05;15.63;;;10.50;99.90;;;;;;4804273;29;20533;-69
2022/03/16 10:04:26;;;;;;;29.00;15.60;;;10.60;99.90;;;;;;4816443;29;20045;-70
2022/03/16 10:06:52;;;;;;;26.35;15.60;;;10.70;99.90;;;;;;4819518;29;20399;-69
2022/03/16 10:15:00;;;;;;;29.25;14.63;;;11.00;99.90;;;;;;4802474;29;20058;-69
2022/03/16 10:17:44;;;;;;;24.67;14.32;;;11.20;99.90;;;;;;4819242;29;20071;-69
2022/03/16 10:20:21;;;;;;;26.10;13.45;;;11.20;99.90;;;;;;4804326;29;20377;-69
2022/03/16 10:23:06;;;;;;;20.90;11.63;;;11.30;99.90;;;;;;4821493;29;20055;-70
2022/03/16 10:25:39;;;;;;;21.90;12.27;;;11.50;99.90;;;;;;4811437;29;20089;-68
2022/03/16 10:28:16;;;;;;;21.85;12.60;;;11.70;99.90;;;;;;4821945;29;20061;-69
2022/03/16 10:30:58;;;;;;;18.73;11.40;;;11.80;99.90;;;;;;4820482;29;20053;-68
2022/03/16 10:33:30;;;;;;;25.20;12.52;;;11.90;99.90;;;;;;4804507;29;20058;-68
2022/03/16 10:36:11;;;;;;;23.17;11.65;;;11.90;99.90;;;;;;4817218;29;20086;-68
2022/03/16 10:38:39;;;;;;;22.08;12.20;;;11.90;99.90;;;;;;4820955;29;20061;-68
2022/03/16 10:47:16;;;;;;;24.38;12.10;;;12.20;99.90;;;;;;4817048;29;20137;-68
2022/03/16 10:49:43;;;;;;;22.30;11.93;;;12.20;99.90;;;;;;4799397;29;20050;-69
2022/03/16 10:52:17;;;;;;;20.45;10.90;;;12.30;99.90;;;;;;4802889;29;20085;-68
2022/03/16 10:54:45;;;;;;;22.60;12.33;;;12.30;99.90;;;;;;4777434;29;1123090;-68
2022/03/16 10:57:13;;;;;;;23.88;11.55;;;12.40;99.90;;;;;;4820334;29;20460;-68
2022/03/16 10:59:42;;;;;;;23.45;11.32;;;12.40;99.90;;;;;;4787984;29;20166;-68
2022/03/16 11:02:12;;;;;;;23.70;11.82;;;12.40;99.90;;;;;;4821089;29;20039;-69
2022/03/16 11:04:41;;;;;;;22.70;11.52;;;12.50;99.90;;;;;;4818426;29;20448;-68
2022/03/16 11:07:07;;;;;;;21.50;11.57;;;12.50;99.90;;;;;;4818777;29;20058;-68
2022/03/16 11:09:35;;;;;;;21.92;11.43;;;12.40;99.90;;;;;;4817371;29;20046;-68
2022/03/16 11:14:49;;;;;;;23.23;10.13;;;12.40;99.90;;;;;;4819230;29;20410;-68
2022/03/16 11:17:16;;;;;;;19.40;10.15;;;12.40;99.90;;;;;;4820268;29;20150;-67
2022/03/16 11:19:44;;;;;;;22.67;10.75;;;12.50;99.90;;;;;;4821594;29;20061;-67
2022/03/16 11:22:27;;;;;;;22.20;10.43;;;12.50;99.90;;;;;;4820484;29;20058;-68
2022/03/16 11:25:15;;;;;;;21.38;9.68;;;12.50;99.90;;;;;;4785615;29;20062;-67
2022/03/16 11:27:51;;;;;;;21.50;9.25;;;12.60;99.90;;;;;;4814699;29;20054;-67
2022/03/16 11:30:29;;;;;;;20.25;9.45;;;12.70;99.90;;;;;;4816018;29;20155;-66
2022/03/16 11:33:04;;;;;;;19.15;9.20;;;12.90;99.90;;;;;;4822072;29;20050;-68
2022/03/16 11:35:44;;;;;;;19.17;8.75;;;12.90;99.90;;;;;;4817742;29;20053;-67
2022/03/16 11:38:13;;;;;;;21.05;9.30;;;13.00;99.90;;;;;;4821276;29;20077;-67
2022/03/16 11:40:44;;;;;;;18.38;8.48;;;13.10;99.90;;;;;;4820236;29;20420;-67
2022/03/16 11:43:21;;;;;;;18.17;8.07;;;13.30;99.90;;;;;;4820742;29;20499;-66
2022/03/16 11:45:54;;;;;;;20.33;8.90;;;13.40;99.90;;;;;;4811665;29;20404;-69
2022/03/16 11:48:32;;;;;;;19.92;9.63;;;13.40;99.90;;;;;;4820054;29;20054;-71
2022/03/16 11:51:13;;;;;;;18.40;9.80;;;13.30;99.90;;;;;;4807588;29;20449;-71
2022/03/16 11:53:49;;;;;;;17.90;10.57;;;13.30;99.90;;;;;;4792648;29;20138;-79
2022/03/16 11:56:40;;;;;;;16.70;9.32;;;13.40;99.90;;;;;;4804245;29;20495;-73
2022/03/16 11:59:17;;;;;;;19.88;10.02;;;13.40;99.90;;;;;;4793915;29;20427;-75
2022/03/16 12:02:01;;;;;;;21.02;10.10;;;13.40;99.90;;;;;;4819955;29;20054;-74
2022/03/16 12:04:35;;;;;;;18.70;9.35;;;13.50;99.90;;;;;;4817100;29;20053;-72
2022/03/16 12:07:18;;;;;;;21.42;10.02;;;13.60;99.90;;;;;;4813182;29;20081;-74
2022/03/16 12:10:03;;;;;;;18.73;11.07;;;13.90;99.90;;;;;;4813066;29;20063;-71
2022/03/16 12:12:51;;;;;;;17.52;8.88;;;14.00;99.90;;;;;;4832562;29;20087;-74
2022/03/16 12:15:39;;;;;;;18.73;8.13;;;14.00;99.90;;;;;;4833639;29;20083;-69
2022/03/16 12:18:07;;;;;;;17.15;8.25;;;14.10;98.20;;;;;;4819806;29;20061;-76
2022/03/16 12:20:42;;;;;;;15.73;7.65;;;14.10;99.90;;;;;;4833569;29;20054;-69
2022/03/16 12:23:10;;;;;;;16.58;8.68;;;14.10;96.40;;;;;;4830324;29;20046;-71
2022/03/16 12:25:42;;;;;;;19.58;8.27;;;14.10;98.80;;;;;;4833454;29;20054;-76
2022/03/16 12:31:17;;;;;;;18.38;8.50;;;14.20;98.90;;;;;;4809643;29;19925;-75
2022/03/16 12:33:55;;;;;;;18.95;8.60;;;14.20;99.90;;;;;;4798045;29;20411;-72
2022/03/16 12:36:27;;;;;;;15.95;8.13;;;14.30;99.90;;;;;;4796293;29;20059;-76
2022/03/16 12:39:03;;;;;;;16.45;9.00;;;14.40;97.70;;;;;;4810836;29;20418;-74
2022/03/16 12:44:16;;;;;;;17.73;8.65;;;14.40;98.70;;;;;;4796376;29;20078;-74
2022/03/16 12:47:14;;;;;;;17.67;7.75;;;14.40;99.80;;;;;;4803400;29;20115;-76
2022/03/16 12:49:42;;;;;;;18.92;8.05;;;14.40;96.10;;;;;;4818893;29;20070;-73
2022/03/16 12:52:08;;;;;;;17.70;8.77;;;14.60;98.80;;;;;;4818052;29;20141;-77
2022/03/16 12:54:36;;;;;;;17.13;8.88;;;14.50;98.30;;;;;;4821782;29;20158;-77
2022/03/16 12:57:09;;;;;;;16.83;8.20;;;14.60;98.50;;;;;;4819264;29;20066;-74
2022/03/16 12:59:41;;;;;;;18.00;8.02;;;14.50;96.70;;;;;;4821679;29;20138;-76
2022/03/16 13:02:10;;;;;;;;;;;14.50;95.60;;;;;;4823147;29;20099;-74
2022/03/16 13:04:37;;;;;;;16.80;7.75;;;14.50;92.50;;;;;;4817922;29;19933;-76